La Mesa, New Mexico
Current Conditions -  °F | °C
As of 11:35 PM on Sunday 23 Nov 2014 (Local Time) from KLRU Reporting Station
Clear Clear  
Wind Chill:   Ceiling: Unl
Heat Index:   Visibility: 10mi
Dew Point: -19°   Wind: 5mph
Humidity: 18%   Direction: 360°N
Pressure: 30.12"   Gusts: NA
Location:  32.12°N, 106.71°W
Report Text: KLRU 240635Z AUTO 36004KT 10SM CLR 04/M19 A3012 RMK AO2 T00401186 PWINO
Loading
Personal Weather Stations






























Interactive Weather Map New forecast layout! Learn more

10-Day Weather Forecast

Advertisements
Track Severe Weather on mobile